Time;durP1;ratioP1;P1;durP2;ratioP2;P2;SDS_P1;SDS_P2;PMS_P1;PMS_P2;Temp;Humidity;BMP_temperature;BMP_pressure;BME280_temperature;BME280_humidity;BME280_pressure;Samples;Min_cycle;Max_cycle;Signal;HPM_P1;HPM_P2
2021/01/20 00:01:10;;;;;;;;;;;;;;;6.64;59.83;101436.84;5010385;28;19914;-89
2021/01/20 00:03:55;;;;;;;;;;;;;;;6.74;59.11;101417.94;5025892;28;20287;-87
2021/01/20 00:06:39;;;;;;;;;;;;;;;6.66;58.10;101423.03;5015796;28;19913;-90
2021/01/20 00:09:24;;;;;;;;;;;;;;;6.69;57.73;101425.22;5013710;28;19913;-89
2021/01/20 00:12:09;;;;;;;;;;;;;;;6.73;57.18;101418.19;5021201;28;19925;-88
2021/01/20 00:14:54;;;;;;;;;;;;;;;6.74;57.99;101425.22;5017908;28;19913;-88
2021/01/20 00:17:38;;;;;;;;;;;;;;;6.69;57.55;101420.63;5039916;28;19917;-88
2021/01/20 00:20:23;;;;;;;;;;;;;;;6.83;58.39;101421.69;5011027;28;19917;-86
2021/01/20 00:23:08;;;;;;;;;;;;;;;6.94;59.13;101417.06;5033493;28;19918;-87
2021/01/20 00:25:54;;;;;;;;;;;;;;;6.91;59.37;101424.94;5009537;28;19913;-88
2021/01/20 00:28:39;;;;;;;;;;;;;;;6.76;58.02;101417.63;5011103;28;20294;-87
2021/01/20 00:31:24;;;;;;;;;;;;;;;6.63;58.44;101415.50;5019937;28;20314;-88
2021/01/20 00:34:09;;;;;;;;;;;;;;;6.64;60.50;101417.13;5026893;28;19922;-88
2021/01/20 00:36:54;;;;;;;;;;;;;;;6.72;56.78;101403.84;5028063;28;20387;-88
2021/01/20 00:39:38;;;;;;;;;;;;;;;6.55;57.03;101389.03;5021855;28;20380;-87
2021/01/20 00:42:23;;;;;;;;;;;;;;;6.50;56.25;101392.56;5038268;28;19917;-87
2021/01/20 00:45:08;;;;;;;;;;;;;;;6.82;58.90;101378.69;5024655;28;20303;-87
2021/01/20 00:47:52;;;;;;;;;;;;;;;6.74;57.74;101361.16;5023975;28;19913;-87
2021/01/20 00:50:37;;;;;;;;;;;;;;;6.84;57.13;101374.66;5013063;28;19913;-87
2021/01/20 00:53:23;;;;;;;;;;;;;;;6.54;60.73;101407.13;5028411;28;19925;-87
2021/01/20 00:56:10;;;;;;;;;;;;;;;6.53;60.75;101402.81;5040459;28;19913;-88
2021/01/20 00:58:56;;;;;;;;;;;;;;;6.36;56.85;101369.84;5015499;28;19914;-88
2021/01/20 01:01:41;;;;;;;;;;;;;;;6.07;57.32;101379.56;5014317;28;20298;-87
2021/01/20 01:04:36;;;;;;;;;;;;;;;5.90;59.31;101387.91;5015386;28;20384;-88
2021/01/20 01:07:21;;;;;;;;;;;;;;;5.97;58.84;101394.69;5014321;28;19913;-87
2021/01/20 01:10:06;;;;;;;;;;;;;;;6.07;60.87;101407.38;5034457;28;19913;-87
2021/01/20 01:13:19;;;;;;;;;;;;;;;5.94;58.87;101403.28;5045336;28;19921;-89
2021/01/20 01:16:24;;;;;;;;;;;;;;;6.20;61.11;101408.72;5042021;28;19913;-90
2021/01/20 01:19:08;;;;;;;;;;;;;;;6.17;58.16;101398.47;5023423;28;19917;-89
2021/01/20 01:21:53;;;;;;;;;;;;;;;6.16;59.00;101400.34;5001995;28;19913;-89
2021/01/20 01:24:40;;;;;;;;;;;;;;;6.25;57.84;101392.53;5013615;28;19921;-89
2021/01/20 01:27:26;;;;;;;;;;;;;;;6.25;58.51;101395.22;5036185;28;19913;-84
2021/01/20 01:30:17;;;;;;;;;;;;;;;6.41;59.02;101392.25;5010499;28;19914;-84
2021/01/20 01:33:03;;;;;;;;;;;;;;;6.51;58.07;101388.75;5006671;28;19917;-85
2021/01/20 01:35:53;;;;;;;;;;;;;;;6.42;57.13;101396.59;5021251;28;19913;-85
2021/01/20 01:38:38;;;;;;;;;;;;;;;6.43;57.69;101383.91;5007415;28;20372;-85
2021/01/20 01:41:28;;;;;;;;;;;;;;;6.59;59.98;101377.41;5003227;28;19913;-87
2021/01/20 01:44:20;;;;;;;;;;;;;;;6.33;58.15;101354.19;5002119;28;19914;-87
2021/01/20 01:47:13;;;;;;;;;;;;;;;6.22;57.17;101363.38;5001402;28;19913;-87
2021/01/20 01:50:15;;;;;;;;;;;;;;;6.31;58.67;101378.75;5013949;28;19913;-89
2021/01/20 01:53:03;;;;;;;;;;;;;;;6.31;57.60;101372.53;5025121;28;19917;-87
2021/01/20 01:56:19;;;;;;;;;;;;;;;6.48;64.90;101397.41;5022435;28;19918;-87
2021/01/20 01:59:14;;;;;;;;;;;;;;;6.40;62.16;101376.31;5034480;28;19913;-86
2021/01/20 02:02:00;;;;;;;;;;;;;;;6.36;58.02;101380.66;5006687;28;19913;-87
2021/01/20 02:04:52;;;;;;;;;;;;;;;6.54;63.47;101396.31;5020348;28;20283;-87
2021/01/20 02:07:42;;;;;;;;;;;;;;;6.41;61.74;101402.25;5006894;28;19914;-87
2021/01/20 02:10:28;;;;;;;;;;;;;;;6.62;65.74;101405.75;5017436;28;20299;-87
2021/01/20 02:13:32;;;;;;;;;;;;;;;6.61;64.97;101415.75;5042913;22;19925;-81
2021/01/20 02:16:37;;;;;;;;;;;;;;;6.71;66.42;101407.63;5047365;28;19921;-81
2021/01/20 02:19:48;;;;;;;;;;;;;;;6.68;65.24;101404.69;5047665;28;19913;-81
2021/01/20 02:22:41;;;;;;;;;;;;;;;6.70;66.51;101411.44;5042173;28;19913;-81
2021/01/20 02:25:53;;;;;;;;;;;;;;;6.70;65.40;101399.81;5043682;28;19912;-82
2021/01/20 02:28:53;;;;;;;;;;;;;;;6.50;61.27;101392.56;5043413;28;20402;-81
2021/01/20 02:31:46;;;;;;;;;;;;;;;6.42;61.75;101396.59;5033052;28;19921;-82
2021/01/20 02:34:32;;;;;;;;;;;;;;;6.52;59.40;101389.56;5042795;28;19916;-81
2021/01/20 02:37:17;;;;;;;;;;;;;;;6.55;58.50;101365.53;5028821;28;19934;-81
2021/01/20 02:40:26;;;;;;;;;;;;;;;6.56;58.26;101367.13;5032857;28;19913;-82
2021/01/20 02:43:29;;;;;;;;;;;;;;;6.50;58.02;101370.13;5041580;28;19913;-82
2021/01/20 02:46:33;;;;;;;;;;;;;;;6.44;58.77;101378.22;5056126;28;19913;-83
2021/01/20 02:49:26;;;;;;;;;;;;;;;6.50;58.00;101368.25;5028275;28;19917;-83
2021/01/20 02:52:10;;;;;;;;;;;;;;;6.38;58.77;101375.81;5047474;28;19913;-82
2021/01/20 02:55:31;;;;;;;;;;;;;;;6.38;58.86;101384.72;5011620;28;19913;-81
2021/01/20 02:58:37;;;;;;;;;;;;;;;6.39;58.50;101372.84;5044729;28;19920;-81
2021/01/20 03:01:45;;;;;;;;;;;;;;;6.38;58.31;101367.69;5039995;28;19913;-81
2021/01/20 03:04:30;;;;;;;;;;;;;;;6.45;58.69;101362.81;5042237;28;19913;-82
2021/01/20 03:07:17;;;;;;;;;;;;;;;6.27;59.18;101355.28;5039347;28;20379;-81
2021/01/20 03:10:03;;;;;;;;;;;;;;;6.10;59.21;101330.41;5041822;28;19913;-81
2021/01/20 03:12:48;;;;;;;;;;;;;;;6.04;59.96;101301.81;5041986;28;19917;-81
2021/01/20 03:15:35;;;;;;;;;;;;;;;6.09;60.15;101315.31;5042683;28;19913;-81
2021/01/20 03:18:19;;;;;;;;;;;;;;;6.09;59.25;101326.94;5041462;28;19913;-81
2021/01/20 03:21:03;;;;;;;;;;;;;;;6.06;59.46;101334.75;5039098;28;19917;-81
2021/01/20 03:23:48;;;;;;;;;;;;;;;6.14;59.63;101347.72;5035066;28;19913;-81
2021/01/20 03:26:32;;;;;;;;;;;;;;;6.15;60.78;101358.22;5035258;28;19913;-81
2021/01/20 03:29:16;;;;;;;;;;;;;;;6.22;59.98;101358.78;5016018;28;19913;-81
2021/01/20 03:32:01;;;;;;;;;;;;;;;6.42;61.37;101352.56;5033509;28;19913;-81
2021/01/20 03:34:45;;;;;;;;;;;;;;;6.45;61.94;101360.09;5036690;28;19921;-82
2021/01/20 03:37:30;;;;;;;;;;;;;;;6.54;65.84;101361.19;5025188;28;19913;-83
2021/01/20 03:40:14;;;;;;;;;;;;;;;6.43;60.41;101362.28;5022531;28;19913;-83
2021/01/20 03:42:59;;;;;;;;;;;;;;;6.55;64.29;101362.00;5037998;28;19913;-81
2021/01/20 03:45:43;;;;;;;;;;;;;;;6.61;64.30;101360.91;5038959;28;19913;-80
2021/01/20 03:48:28;;;;;;;;;;;;;;;6.58;62.60;101366.88;5035171;28;19913;-82
2021/01/20 03:51:12;;;;;;;;;;;;;;;6.58;63.74;101350.66;5028238;28;19913;-83
2021/01/20 03:53:57;;;;;;;;;;;;;;;6.55;61.61;101329.59;5057872;28;19917;-81
2021/01/20 03:56:41;;;;;;;;;;;;;;;6.44;60.00;101324.22;5047032;28;20381;-84
2021/01/20 03:59:27;;;;;;;;;;;;;;;6.47;59.34;101319.31;5037350;28;19913;-84
2021/01/20 04:02:11;;;;;;;;;;;;;;;6.42;58.45;101320.97;5026383;28;19913;-84
2021/01/20 04:04:56;;;;;;;;;;;;;;;6.55;60.68;101325.00;5033656;28;19913;-84
2021/01/20 04:07:40;;;;;;;;;;;;;;;6.70;61.60;101308.75;5033835;28;19913;-84
2021/01/20 04:10:25;;;;;;;;;;;;;;;6.88;63.79;101307.34;5040300;28;20120;-85
2021/01/20 04:13:10;;;;;;;;;;;;;;;6.87;62.18;101311.13;5048624;28;20378;-85
2021/01/20 04:15:54;;;;;;;;;;;;;;;6.89;61.85;101311.66;5051592;28;19913;-85
2021/01/20 04:18:39;;;;;;;;;;;;;;;6.92;60.69;101310.28;5032268;28;20290;-85
2021/01/20 04:21:25;;;;;;;;;;;;;;;6.83;58.72;101315.47;5021826;28;19914;-85
2021/01/20 04:24:10;;;;;;;;;;;;;;;6.76;58.35;101312.22;5042252;28;19913;-85
2021/01/20 04:26:56;;;;;;;;;;;;;;;6.86;60.39;101318.41;5034764;28;19917;-85
2021/01/20 04:29:40;;;;;;;;;;;;;;;6.80;59.54;101311.44;5045627;28;19921;-85
2021/01/20 04:32:24;;;;;;;;;;;;;;;6.83;59.81;101310.88;5027877;28;20391;-85
2021/01/20 04:35:09;;;;;;;;;;;;;;;6.89;60.77;101314.38;5027599;28;19913;-85
2021/01/20 04:37:55;;;;;;;;;;;;;;;6.97;62.94;101315.66;5013007;28;19913;-85
2021/01/20 04:40:40;;;;;;;;;;;;;;;7.16;65.77;101319.41;5036010;28;19913;-85
2021/01/20 04:43:24;;;;;;;;;;;;;;;7.07;60.47;101318.34;5046572;28;20295;-84
2021/01/20 04:46:11;;;;;;;;;;;;;;;7.15;64.18;101329.41;5038069;28;19913;-85
2021/01/20 04:48:57;;;;;;;;;;;;;;;7.17;64.00;101323.69;5037595;28;19913;-85
2021/01/20 04:51:43;;;;;;;;;;;;;;;7.19;62.97;101326.94;5049436;28;19913;-85
2021/01/20 04:54:30;;;;;;;;;;;;;;;7.28;65.12;101327.97;5039122;28;20375;-85
2021/01/20 04:57:14;;;;;;;;;;;;;;;7.13;61.64;101326.16;5051417;28;19913;-85
2021/01/20 04:59:59;;;;;;;;;;;;;;;6.89;58.84;101325.19;5049508;28;19913;-85
2021/01/20 05:02:44;;;;;;;;;;;;;;;6.82;58.27;101346.28;5045750;28;19913;-85
2021/01/20 05:05:28;;;;;;;;;;;;;;;6.72;59.40;101355.22;5037461;28;19932;-85
2021/01/20 05:08:13;;;;;;;;;;;;;;;6.75;59.78;101362.78;5049399;28;19913;-85
2021/01/20 05:10:57;;;;;;;;;;;;;;;6.70;59.33;101362.81;5032946;28;19913;-85
2021/01/20 05:13:42;;;;;;;;;;;;;;;6.68;58.29;101351.44;5046939;28;19917;-85
2021/01/20 05:16:27;;;;;;;;;;;;;;;6.73;57.62;101343.31;5048540;28;19913;-84
2021/01/20 05:19:12;;;;;;;;;;;;;;;6.77;58.91;101338.97;5049929;28;19912;-86
2021/01/20 05:22:04;;;;;;;;;;;;;;;6.83;59.95;101359.53;5055356;28;19917;-85
2021/01/20 05:24:56;;;;;;;;;;;;;;;6.72;58.47;101347.09;5063945;28;19913;-85
2021/01/20 05:27:41;;;;;;;;;;;;;;;6.66;57.95;101359.00;5056167;28;20196;-85
2021/01/20 05:30:25;;;;;;;;;;;;;;;6.69;58.20;101361.19;5036131;28;19913;-85
2021/01/20 05:33:10;;;;;;;;;;;;;;;6.79;58.52;101353.03;5030231;28;19920;-85
2021/01/20 05:36:11;;;;;;;;;;;;;;;6.67;57.85;101357.13;5056465;28;19912;-85
2021/01/20 05:38:56;;;;;;;;;;;;;;;6.71;58.22;101361.69;5054471;28;19921;-85
2021/01/20 05:41:40;;;;;;;;;;;;;;;6.73;59.51;101364.13;5043458;28;19914;-85
2021/01/20 05:44:24;;;;;;;;;;;;;;;6.70;58.86;101360.09;5027403;28;19913;-85
2021/01/20 05:47:12;;;;;;;;;;;;;;;6.73;57.32;101364.13;5028248;28;19913;-84
2021/01/20 05:50:04;;;;;;;;;;;;;;;6.90;59.59;101363.84;5030307;28;20443;-85
2021/01/20 05:53:01;;;;;;;;;;;;;;;6.78;58.50;101346.00;5044387;28;19917;-85
2021/01/20 05:55:59;;;;;;;;;;;;;;;6.90;59.44;101347.63;5031142;28;19914;-85
2021/01/20 05:58:43;;;;;;;;;;;;;;;7.00;60.51;101342.16;5039723;28;19913;-85
2021/01/20 06:01:31;;;;;;;;;;;;;;;6.91;58.56;101333.81;5031012;28;19913;-85
2021/01/20 06:04:17;;;;;;;;;;;;;;;6.88;58.56;101337.06;5033481;28;19917;-85
2021/01/20 06:07:06;;;;;;;;;;;;;;;6.45;58.81;101355.50;5030258;28;19913;-85
2021/01/20 06:09:51;;;;;;;;;;;;;;;6.05;58.82;101354.72;5043912;28;19925;-84
2021/01/20 06:12:35;;;;;;;;;;;;;;;5.84;59.25;101351.19;5016915;28;19914;-86
2021/01/20 06:15:20;;;;;;;;;;;;;;;3.66;63.36;101346.41;5035866;28;19913;-79
2021/01/20 06:18:07;;;;;;;;;;;;;;;3.73;65.02;101344.31;5032925;28;19913;-79
2021/01/20 06:20:52;;;;;;;;;;;;;;;2.09;71.96;101358.53;5033968;28;19913;-78
2021/01/20 06:23:37;;;;;;;;;;;;;;;1.76;73.31;101357.69;5032986;28;19917;-82
2021/01/20 06:26:23;;;;;;;;;;;;;;;2.14;71.76;101360.50;5037715;28;19913;-86
2021/01/20 06:29:10;;;;;;;;;;;;;;;2.70;70.82;101361.34;5040930;28;19913;-84
2021/01/20 06:31:56;;;;;;;;;;;;;;;2.66;70.36;101365.59;5028535;28;20376;-85
2021/01/20 06:34:48;;;;;;;;;;;;;;;2.97;69.47;101373.00;5023953;28;19917;-86
2021/01/20 06:37:32;;;;;;;;;;;;;;;2.83;69.64;101375.25;5025120;28;19913;-85
2021/01/20 06:40:18;;;;;;;;;;;;;;;2.99;69.28;101368.22;5006631;28;19913;-85
2021/01/20 06:43:22;;;;;;;;;;;;;;;2.43;71.45;101364.75;5018360;28;19929;-85
2021/01/20 06:46:11;;;;;;;;;;;;;;;2.93;69.33;101366.53;5022214;28;19917;-85
2021/01/20 06:48:55;;;;;;;;;;;;;;;2.85;69.95;101370.44;5020383;28;19940;-85
2021/01/20 06:51:40;;;;;;;;;;;;;;;2.69;70.56;101382.03;5009553;28;19913;-84
2021/01/20 06:54:33;;;;;;;;;;;;;;;2.66;70.75;101374.47;5017697;28;19917;-85
2021/01/20 06:57:30;;;;;;;;;;;;;;;2.57;71.33;101375.94;5018601;28;19913;-85
2021/01/20 07:00:15;;;;;;;;;;;;;;;2.56;71.71;101377.81;5008276;28;19913;-84
2021/01/20 07:03:03;;;;;;;;;;;;;;;2.59;71.12;101382.69;5020612;28;19913;-85
2021/01/20 07:05:48;;;;;;;;;;;;;;;2.64;71.04;101392.72;5019258;28;19913;-85
2021/01/20 07:08:50;;;;;;;;;;;;;;;2.67;70.95;101386.00;5022005;28;19913;-85
2021/01/20 07:11:55;;;;;;;;;;;;;;;2.70;70.96;101390.88;5018856;28;20327;-85
2021/01/20 07:14:43;;;;;;;;;;;;;;;2.61;70.90;101382.44;5016873;28;19917;-85
2021/01/20 07:17:33;;;;;;;;;;;;;;;2.61;71.47;101387.81;5008061;28;19913;-85
2021/01/20 07:20:17;;;;;;;;;;;;;;;2.74;70.64;101390.16;5032672;28;19914;-84
2021/01/20 07:23:02;;;;;;;;;;;;;;;2.57;71.58;101397.41;5021303;28;19913;-85
2021/01/20 07:25:47;;;;;;;;;;;;;;;2.79;71.34;101390.25;5019261;28;19917;-85
2021/01/20 07:28:33;;;;;;;;;;;;;;;2.75;71.32;101378.34;5018436;28;19913;-85
2021/01/20 07:31:17;;;;;;;;;;;;;;;2.71;72.30;101387.16;5019178;28;19913;-85
2021/01/20 07:34:02;;;;;;;;;;;;;;;2.66;72.52;101395.94;5004789;28;20457;-84
2021/01/20 07:36:47;;;;;;;;;;;;;;;2.64;72.68;101386.53;5018144;28;19918;-84
2021/01/20 07:39:32;;;;;;;;;;;;;;;2.62;73.10;101388.63;5031182;28;19913;-85
2021/01/20 07:42:16;;;;;;;;;;;;;;;2.47;73.89;101390.03;5020905;28;19913;-84
2021/01/20 07:45:02;;;;;;;;;;;;;;;2.64;73.95;101387.34;5032852;28;19913;-85
2021/01/20 07:47:46;;;;;;;;;;;;;;;2.65;73.60;101391.63;5022786;28;19913;-85
2021/01/20 07:50:40;;;;;;;;;;;;;;;2.57;74.13;101392.88;5020872;28;19913;-85
2021/01/20 07:53:24;;;;;;;;;;;;;;;2.55;73.88;101391.47;5019194;28;19917;-85
2021/01/20 07:56:08;;;;;;;;;;;;;;;2.45;74.22;101399.38;5019126;28;19913;-85
2021/01/20 07:58:54;;;;;;;;;;;;;;;2.84;73.37;101402.94;5035786;28;20375;-86
2021/01/20 08:01:39;;;;;;;;;;;;;;;2.74;73.10;101403.59;5022861;28;19913;-85
2021/01/20 08:04:26;;;;;;;;;;;;;;;2.62;74.88;101402.06;5025987;28;19917;-85
2021/01/20 08:07:22;;;;;;;;;;;;;;;3.17;72.45;101413.59;5036908;28;19914;-85
2021/01/20 08:10:17;;;;;;;;;;;;;;;3.25;71.29;101417.72;5033405;28;19913;-85
2021/01/20 08:13:03;;;;;;;;;;;;;;;3.13;71.49;101427.75;5078030;22;19920;-76
2021/01/20 08:15:48;;;;;;;;;;;;;;;3.12;72.21;101429.63;5091071;28;19916;-79
2021/01/20 08:18:32;;;;;;;;;;;;;;;2.86;71.89;101438.38;5091702;28;19912;-78
2021/01/20 08:21:17;;;;;;;;;;;;;;;2.99;72.41;101443.44;5094066;28;20595;-79
2021/01/20 08:24:05;;;;;;;;;;;;;;;3.04;71.97;101438.13;5094072;28;20363;-78
2021/01/20 08:26:57;;;;;;;;;;;;;;;3.06;72.29;101432.50;5095722;28;20378;-78
2021/01/20 08:29:49;;;;;;;;;;;;;;;3.38;71.45;101428.09;5092020;28;20309;-77
2021/01/20 08:32:33;;;;;;;;;;;;;;;3.56;70.71;101417.00;5101426;28;19923;-78
2021/01/20 08:35:24;;;;;;;;;;;;;;;3.47;70.70;101410.47;5088955;28;19920;-78
2021/01/20 08:38:24;;;;;;;;;;;;;;;3.66;70.07;101432.44;5106369;28;19912;-78
2021/01/20 08:41:09;;;;;;;;;;;;;;;3.68;70.59;101443.78;5100879;28;19912;-78
2021/01/20 08:44:15;;;;;;;;;;;;;;;3.86;69.60;101444.25;5093729;28;20278;-78
2021/01/20 08:46:59;;;;;;;;;;;;;;;3.82;69.80;101440.44;5082556;28;19912;-78
2021/01/20 08:49:49;;;;;;;;;;;;;;;3.73;70.14;101438.47;5094901;28;19911;-78
2021/01/20 08:52:47;;;;;;;;;;;;;;;3.73;69.49;101449.22;5094101;28;19912;-79
2021/01/20 08:55:31;;;;;;;;;;;;;;;4.00;68.18;101433.91;5097348;28;19915;-79
2021/01/20 08:58:20;;;;;;;;;;;;;;;4.37;67.59;101427.81;5095116;28;19912;-78
2021/01/20 09:01:11;;;;;;;;;;;;;;;4.50;66.59;101430.06;5095785;28;19912;-78
2021/01/20 09:04:00;;;;;;;;;;;;;;;4.28;66.93;101425.56;5094577;28;19912;-78
2021/01/20 09:06:45;;;;;;;;;;;;;;;4.89;65.80;101434.13;5093638;28;19915;-78
2021/01/20 09:09:29;;;;;;;;;;;;;;;5.09;64.18;101431.53;5094834;28;19912;-78
2021/01/20 09:12:13;;;;;;;;;;;;;;;5.15;64.19;101435.09;5096087;28;19912;-78
2021/01/20 09:14:58;;;;;;;;;;;;;;;5.25;63.63;101434.31;5094318;28;19920;-78
2021/01/20 09:17:42;;;;;;;;;;;;;;;5.23;63.67;101437.31;5094304;28;19912;-78
2021/01/20 09:20:27;;;;;;;;;;;;;;;5.14;63.67;101428.88;5095849;28;20383;-78
2021/01/20 09:23:12;;;;;;;;;;;;;;;5.01;64.80;101423.97;5079476;28;20363;-79
2021/01/20 09:25:57;;;;;;;;;;;;;;;4.82;64.93;101409.28;5094463;28;20378;-78
2021/01/20 09:28:42;;;;;;;;;;;;;;;4.82;64.71;101436.25;5093503;28;19912;-80
2021/01/20 09:31:26;;;;;;;;;;;;;;;4.91;64.36;101423.91;5079325;28;19912;-79
2021/01/20 09:34:11;;;;;;;;;;;;;;;5.15;63.87;101416.22;5092922;28;19916;-79
2021/01/20 09:36:55;;;;;;;;;;;;;;;5.08;64.45;101411.03;5089556;28;19912;-78
2021/01/20 09:39:40;;;;;;;;;;;;;;;5.48;64.00;101401.53;5059652;28;19912;-79
2021/01/20 09:42:25;;;;;;;;;;;;;;;5.46;63.39;101396.41;5063243;28;20290;-79
2021/01/20 09:45:11;;;;;;;;;;;;;;;5.82;62.35;101415.41;5073380;28;20536;-79
2021/01/20 09:47:57;;;;;;;;;;;;;;;5.78;61.52;101407.03;5059810;28;19912;-78
2021/01/20 09:50:44;;;;;;;;;;;;;;;5.76;61.37;101398.38;5073376;28;19920;-79
2021/01/20 09:53:29;;;;;;;;;;;;;;;5.90;60.87;101420.28;5072529;28;19920;-79
2021/01/20 09:56:14;;;;;;;;;;;;;;;5.87;61.10;101420.84;5072318;28;19912;-79
2021/01/20 09:58:58;;;;;;;;;;;;;;;5.48;60.84;101402.34;5073464;28;20278;-79
2021/01/20 10:01:43;;;;;;;;;;;;;;;5.52;60.90;101405.31;5075573;28;19912;-80
2021/01/20 10:04:27;;;;;;;;;;;;;;;5.67;60.36;101410.78;5072665;28;19920;-80
2021/01/20 10:07:12;;;;;;;;;;;;;;;5.26;61.95;101409.00;5073187;28;20270;-79
2021/01/20 10:09:57;;;;;;;;;;;;;;;4.64;64.99;101407.81;5072942;28;19912;-79
2021/01/20 10:12:41;;;;;;;;;;;;;;;4.46;66.12;101426.25;5059519;28;19912;-79
2021/01/20 10:15:26;;;;;;;;;;;;;;;4.38;66.65;101421.34;5071718;28;20424;-80
2021/01/20 10:18:10;;;;;;;;;;;;;;;4.31;67.10;101424.25;5042090;28;19912;-80
2021/01/20 10:20:55;;;;;;;;;;;;;;;4.42;66.47;101430.53;5044448;28;19912;-80
2021/01/20 10:23:39;;;;;;;;;;;;;;;4.52;67.31;101427.94;5040425;28;19913;-80
2021/01/20 10:26:24;;;;;;;;;;;;;;;4.54;67.70;101423.91;5042243;28;19912;-79
2021/01/20 10:29:08;;;;;;;;;;;;;;;4.46;68.25;101420.88;5054368;28;19912;-80
2021/01/20 10:31:53;;;;;;;;;;;;;;;4.29;69.63;101421.00;5038805;28;19913;-80
2021/01/20 10:34:38;;;;;;;;;;;;;;;4.41;72.37;101428.91;5052619;28;19921;-79
2021/01/20 10:37:22;;;;;;;;;;;;;;;4.87;71.80;101428.19;5041040;28;19913;-79
2021/01/20 10:40:07;;;;;;;;;;;;;;;4.93;71.22;101418.22;5051570;28;19913;-78
2021/01/20 10:42:51;;;;;;;;;;;;;;;4.78;70.79;101413.56;5041430;28;20291;-78
2021/01/20 10:45:36;;;;;;;;;;;;;;;5.05;70.10;101413.47;5068807;28;19995;-79
2021/01/20 10:48:21;;;;;;;;;;;;;;;5.19;68.12;101411.91;5038778;28;20299;-78
2021/01/20 10:51:05;;;;;;;;;;;;;;;4.96;67.59;101410.47;5072073;28;19912;-78
2021/01/20 10:53:50;;;;;;;;;;;;;;;5.31;67.09;101411.72;5067330;28;19916;-80
2021/01/20 10:56:34;;;;;;;;;;;;;;;5.15;68.34;101413.50;5067347;28;19913;-80
2021/01/20 10:59:18;;;;;;;;;;;;;;;5.18;68.19;101411.09;5052435;28;19917;-80
2021/01/20 11:02:03;;;;;;;;;;;;;;;5.03;68.74;101412.91;5069202;28;19913;-80
2021/01/20 11:04:47;;;;;;;;;;;;;;;5.12;68.59;101409.47;5051109;28;19916;-80
2021/01/20 11:07:32;;;;;;;;;;;;;;;5.04;69.00;101396.47;5065613;28;19912;-79
2021/01/20 11:10:16;;;;;;;;;;;;;;;4.79;68.98;101388.25;5069539;28;19912;-81
2021/01/20 11:13:07;;;;;;;;;;;;;;;4.56;69.42;101388.63;5052141;28;19913;-80
2021/01/20 11:15:51;;;;;;;;;;;;;;;4.32;70.32;101378.22;5065649;28;19916;-81
2021/01/20 11:18:36;;;;;;;;;;;;;;;4.44;70.37;101374.53;5053814;28;20290;-80
2021/01/20 11:21:21;;;;;;;;;;;;;;;4.38;70.71;101372.88;5059366;28;19912;-79
2021/01/20 11:24:05;;;;;;;;;;;;;;;4.48;69.90;101370.25;5058812;28;19912;-80
2021/01/20 11:26:50;;;;;;;;;;;;;;;4.41;70.12;101361.59;5089533;28;20394;-80
2021/01/20 11:29:34;;;;;;;;;;;;;;;4.55;68.94;101376.25;5071020;28;19913;-79
2021/01/20 11:32:19;;;;;;;;;;;;;;;4.41;69.73;101378.56;5047120;28;19916;-79
2021/01/20 11:35:04;;;;;;;;;;;;;;;4.35;70.08;101368.81;5062830;28;20390;-79
2021/01/20 11:37:49;;;;;;;;;;;;;;;4.27;69.75;101364.72;5082739;28;19912;-79
2021/01/20 11:40:33;;;;;;;;;;;;;;;4.37;69.88;101365.88;5073689;28;19912;-79
2021/01/20 11:43:18;;;;;;;;;;;;;;;4.45;70.11;101366.22;5076132;28;19916;-79
2021/01/20 11:46:03;;;;;;;;;;;;;;;4.28;70.57;101358.25;5071756;28;20301;-78
2021/01/20 11:48:48;;;;;;;;;;;;;;;4.30;71.28;101358.03;5071143;28;19916;-80
2021/01/20 11:51:36;;;;;;;;;;;;;;;4.38;70.87;101349.44;5070840;28;19912;-79
2021/01/20 11:54:21;;;;;;;;;;;;;;;4.21;71.23;101338.03;5071166;28;20306;-78
2021/01/20 11:57:05;;;;;;;;;;;;;;;4.30;71.28;101341.88;5066806;28;19913;-79
2021/01/20 11:59:50;;;;;;;;;;;;;;;4.36;71.23;101335.47;5074363;28;19912;-80
2021/01/20 12:02:34;;;;;;;;;;;;;;;4.21;71.79;101338.84;5077759;28;19913;-80
2021/01/20 12:05:19;;;;;;;;;;;;;;;4.35;71.60;101333.00;5073988;28;19916;-78
2021/01/20 12:08:03;;;;;;;;;;;;;;;4.43;71.44;101316.38;5074102;28;20363;-80
2021/01/20 12:10:47;;;;;;;;;;;;;;;4.29;71.87;101316.81;5058713;28;19912;-80
2021/01/20 12:13:32;;;;;;;;;;;;;;;4.53;71.08;101309.16;5060906;28;19913;-80
2021/01/20 12:16:16;;;;;;;;;;;;;;;4.90;69.80;101303.72;5088214;28;19916;-80
2021/01/20 12:19:01;;;;;;;;;;;;;;;5.07;68.93;101307.03;5082313;28;20298;-78
2021/01/20 12:21:45;;;;;;;;;;;;;;;5.23;68.21;101307.88;5063439;28;20287;-77
2021/01/20 12:24:34;;;;;;;;;;;;;;;5.24;67.97;101309.47;5064100;28;19920;-77
2021/01/20 12:27:19;;;;;;;;;;;;;;;5.21;68.31;101295.72;5066944;28;19916;-78
2021/01/20 12:30:04;;;;;;;;;;;;;;;5.52;67.49;101289.34;5063299;28;20367;-77
2021/01/20 12:32:49;;;;;;;;;;;;;;;5.47;67.54;101292.03;5063730;28;19917;-77
2021/01/20 12:35:33;;;;;;;;;;;;;;;5.22;68.31;101282.00;5068475;28;19916;-76
2021/01/20 12:38:18;;;;;;;;;;;;;;;5.40;68.25;101291.47;5067170;28;19913;-77
2021/01/20 12:41:02;;;;;;;;;;;;;;;5.22;68.65;101289.28;5065345;28;19913;-77
2021/01/20 12:43:47;;;;;;;;;;;;;;;4.95;69.67;101282.16;5062632;28;19913;-78
2021/01/20 12:46:31;;;;;;;;;;;;;;;5.04;68.54;101272.50;5073536;28;19912;-77
2021/01/20 12:49:16;;;;;;;;;;;;;;;4.88;67.97;101270.00;5064115;28;19912;-77
2021/01/20 12:52:00;;;;;;;;;;;;;;;4.63;69.40;101276.91;5069768;28;19912;-77
2021/01/20 12:54:45;;;;;;;;;;;;;;;4.66;69.13;101264.81;5065873;28;19917;-78
2021/01/20 12:57:29;;;;;;;;;;;;;;;4.68;69.46;101262.66;5063547;28;19913;-78
2021/01/20 13:00:14;;;;;;;;;;;;;;;4.46;70.29;101265.53;5054601;28;19912;-77
2021/01/20 13:02:59;;;;;;;;;;;;;;;4.62;70.04;101263.72;5072210;28;19912;-77
2021/01/20 13:05:43;;;;;;;;;;;;;;;4.76;69.26;101264.84;5073221;28;19912;-78
2021/01/20 13:08:29;;;;;;;;;;;;;;;4.77;69.43;101255.72;5085936;28;19912;-78
2021/01/20 13:11:14;;;;;;;;;;;;;;;4.80;68.87;101255.16;5060757;28;19912;-78
2021/01/20 13:13:58;;;;;;;;;;;;;;;4.84;68.76;101269.72;5063956;28;19912;-77
2021/01/20 13:16:44;;;;;;;;;;;;;;;5.07;68.10;101266.59;5070423;28;19913;-78
2021/01/20 13:19:28;;;;;;;;;;;;;;;4.84;69.48;101271.59;5074939;28;19912;-77
2021/01/20 13:22:13;;;;;;;;;;;;;;;4.77;69.37;101262.97;5066556;28;19913;-77
2021/01/20 13:24:57;;;;;;;;;;;;;;;5.14;68.13;101263.63;5067122;28;20310;-78
2021/01/20 13:27:41;;;;;;;;;;;;;;;5.14;68.11;101259.03;5063561;28;19912;-77
2021/01/20 13:30:29;;;;;;;;;;;;;;;5.24;68.58;101260.97;5060158;28;20393;-82
2021/01/20 13:33:16;;;;;;;;;;;;;;;5.09;69.51;101252.84;5060566;28;20286;-83
2021/01/20 13:36:00;;;;;;;;;;;;;;;5.10;69.93;101260.66;5059276;28;20992;-82
2021/01/20 13:38:45;;;;;;;;;;;;;;;5.09;69.83;101255.53;5066119;28;19913;-82
2021/01/20 13:41:29;;;;;;;;;;;;;;;4.98;69.80;101252.00;5067315;28;19912;-81
2021/01/20 13:44:13;;;;;;;;;;;;;;;4.89;70.02;101248.19;5062156;28;19913;-82
2021/01/20 13:46:58;;;;;;;;;;;;;;;4.84;70.85;101247.34;5077035;28;19913;-82
2021/01/20 13:49:43;;;;;;;;;;;;;;;5.03;70.25;101241.22;5075738;28;19912;-82
2021/01/20 13:52:29;;;;;;;;;;;;;;;5.10;70.11;101249.06;5084965;28;19913;-82
2021/01/20 13:55:14;;;;;;;;;;;;;;;4.95;70.77;101235.53;5076312;28;19916;-81
2021/01/20 13:57:58;;;;;;;;;;;;;;;4.95;70.46;101222.06;5075797;28;20367;-81
2021/01/20 14:00:42;;;;;;;;;;;;;;;4.51;71.59;101230.53;5075879;28;19912;-83
2021/01/20 14:03:28;;;;;;;;;;;;;;;4.94;71.11;101229.34;5064140;28;19912;-82
2021/01/20 14:06:13;;;;;;;;;;;;;;;4.46;72.81;101221.63;5071489;28;20302;-82
2021/01/20 14:08:58;;;;;;;;;;;;;;;4.72;71.21;101228.75;5064873;28;20295;-79
2021/01/20 14:11:42;;;;;;;;;;;;;;;4.92;70.32;101228.81;5069141;28;19916;-82
2021/01/20 14:14:26;;;;;;;;;;;;;;;4.87;70.24;101218.03;5058414;22;658033;-82
2021/01/20 14:17:11;;;;;;;;;;;;;;;4.73;70.50;101214.19;5050504;28;19917;-80
2021/01/20 14:19:57;;;;;;;;;;;;;;;4.73;70.83;101211.50;5051124;28;19913;-85
2021/01/20 14:22:41;;;;;;;;;;;;;;;4.78;70.52;101214.19;5066674;28;19913;-81
2021/01/20 14:25:25;;;;;;;;;;;;;;;4.82;70.77;101219.88;5041958;28;20303;-84
2021/01/20 14:28:10;;;;;;;;;;;;;;;4.82;70.92;101209.94;5033669;28;20327;-85
2021/01/20 14:30:54;;;;;;;;;;;;;;;4.89;70.54;101223.13;5059367;28;19917;-86